sensor_id;sensor_type;location;lat;lon;timestamp;pressure;altitude;pressure_sealevel;temperature;humidity
62436;BME280;48480;50.252;18.848;2023-03-04T07:18:46;98523.33;;;-0.36;77.01
62436;BME280;48480;50.252;18.848;2023-03-04T07:21:13;98528.12;;;-0.35;77.27
62436;BME280;48480;50.252;18.848;2023-03-04T07:23:39;98530.77;;;-0.35;77.23
62436;BME280;48480;50.252;18.848;2023-03-04T07:26:06;98527.89;;;-0.34;77.27
62436;BME280;48480;50.252;18.848;2023-03-04T07:28:32;98532.98;;;-0.32;77.22
62436;BME280;48480;50.252;18.848;2023-03-04T07:31:07;98529.55;;;-0.28;77.04
62436;BME280;48480;50.252;18.848;2023-03-04T07:33:33;98498.89;;;-0.46;76.78
62436;BME280;48480;50.252;18.848;2023-03-04T07:36:00;98535.22;;;-0.23;76.84
62436;BME280;48480;50.252;18.848;2023-03-04T07:38:25;98536.98;;;-0.21;76.74
62436;BME280;48480;50.252;18.848;2023-03-04T07:40:58;98541.39;;;-0.18;76.50
62436;BME280;48480;50.252;18.848;2023-03-04T07:43:24;98539.67;;;-0.16;76.60
62436;BME280;48480;50.252;18.848;2023-03-04T07:45:49;98543.21;;;-0.17;76.39
62436;BME280;48480;50.252;18.848;2023-03-04T07:48:15;98542.29;;;-0.15;76.53
62436;BME280;48480;50.252;18.848;2023-03-04T07:50:41;98544.84;;;-0.13;76.35
62436;BME280;48480;50.252;18.848;2023-03-04T07:53:06;98547.25;;;-0.10;76.19
62436;BME280;48480;50.252;18.848;2023-03-04T07:55:32;98544.21;;;-0.08;76.08
62436;BME280;48480;50.252;18.848;2023-03-04T07:57:58;98542.61;;;-0.06;75.97
62436;BME280;48480;50.252;18.848;2023-03-04T08:00:24;98544.70;;;-0.04;75.80
62436;BME280;48480;50.252;18.848;2023-03-04T08:02:49;98545.07;;;-0.00;75.29
62436;BME280;48480;50.252;18.848;2023-03-04T08:05:15;98546.29;;;0.01;75.10
62436;BME280;48480;50.252;18.848;2023-03-04T08:07:40;98547.85;;;-0.01;74.85
62436;BME280;48480;50.252;18.848;2023-03-04T08:10:06;98549.39;;;-0.04;74.95
62436;BME280;48480;50.252;18.848;2023-03-04T08:12:34;98552.87;;;-0.05;74.85
62436;BME280;48480;50.252;18.848;2023-03-04T08:14:59;98552.95;;;-0.03;74.77
62436;BME280;48480;50.252;18.848;2023-03-04T08:17:25;98551.05;;;-0.02;74.67
62436;BME280;48480;50.252;18.848;2023-03-04T08:19:50;98551.45;;;0.00;74.84
62436;BME280;48480;50.252;18.848;2023-03-04T08:22:19;98555.59;;;0.03;74.65
62436;BME280;48480;50.252;18.848;2023-03-04T08:24:48;98548.48;;;0.03;74.28
62436;BME280;48480;50.252;18.848;2023-03-04T08:27:15;98554.45;;;-0.01;74.22
62436;BME280;48480;50.252;18.848;2023-03-04T08:29:41;98542.09;;;-0.05;73.95
62436;BME280;48480;50.252;18.848;2023-03-04T08:32:06;98543.58;;;-0.01;74.10
62436;BME280;48480;50.252;18.848;2023-03-04T08:34:32;98544.02;;;0.04;74.12
62436;BME280;48480;50.252;18.848;2023-03-04T08:37:00;98543.68;;;0.07;74.06
62436;BME280;48480;50.252;18.848;2023-03-04T08:39:26;98546.71;;;0.14;74.12
62436;BME280;48480;50.252;18.848;2023-03-04T08:41:51;98542.70;;;0.18;73.91
62436;BME280;48480;50.252;18.848;2023-03-04T08:44:17;98542.08;;;0.23;74.07
62436;BME280;48480;50.252;18.848;2023-03-04T08:46:43;98543.34;;;0.31;74.05
62436;BME280;48480;50.252;18.848;2023-03-04T08:49:12;98547.91;;;0.39;73.85
62436;BME280;48480;50.252;18.848;2023-03-04T08:51:38;98543.99;;;0.46;73.58
62436;BME280;48480;50.252;18.848;2023-03-04T08:54:04;98539.53;;;0.51;73.24
62436;BME280;48480;50.252;18.848;2023-03-04T08:56:30;98518.08;;;0.41;73.05
62436;BME280;48480;50.252;18.848;2023-03-04T08:58:55;98536.55;;;0.52;72.83
62436;BME280;48480;50.252;18.848;2023-03-04T09:01:21;98536.20;;;0.43;72.67
62436;BME280;48480;50.252;18.848;2023-03-04T09:03:47;98536.02;;;0.37;73.29
62436;BME280;48480;50.252;18.848;2023-03-04T09:06:14;98532.51;;;0.40;73.40
62436;BME280;48480;50.252;18.848;2023-03-04T09:08:40;98534.62;;;0.43;73.03
62436;BME280;48480;50.252;18.848;2023-03-04T09:11:07;98529.14;;;0.40;72.98
62436;BME280;48480;50.252;18.848;2023-03-04T09:13:33;98532.48;;;0.42;72.99
62436;BME280;48480;50.252;18.848;2023-03-04T09:15:59;98530.30;;;0.46;73.12
62436;BME280;48480;50.252;18.848;2023-03-04T09:18:25;98529.02;;;0.53;72.97
62436;BME280;48480;50.252;18.848;2023-03-04T09:20:51;98530.34;;;0.59;72.95
62436;BME280;48480;50.252;18.848;2023-03-04T09:23:17;98534.23;;;0.61;72.28
62436;BME280;48480;50.252;18.848;2023-03-04T09:25:46;98530.48;;;0.57;72.34
62436;BME280;48480;50.252;18.848;2023-03-04T09:28:14;98533.84;;;0.54;72.24
62436;BME280;48480;50.252;18.848;2023-03-04T09:30:41;98529.64;;;0.51;72.57
62436;BME280;48480;50.252;18.848;2023-03-04T09:33:11;98532.64;;;0.52;72.31
62436;BME280;48480;50.252;18.848;2023-03-04T09:35:36;98528.82;;;0.51;72.38
62436;BME280;48480;50.252;18.848;2023-03-04T09:38:02;98523.69;;;0.53;72.51
62436;BME280;48480;50.252;18.848;2023-03-04T09:40:45;98517.54;;;0.56;72.55
62436;BME280;48480;50.252;18.848;2023-03-04T09:43:24;98522.41;;;0.63;72.55
62436;BME280;48480;50.252;18.848;2023-03-04T09:45:56;98525.06;;;0.64;72.16
62436;BME280;48480;50.252;18.848;2023-03-04T09:48:44;98519.84;;;0.58;72.18
62436;BME280;48480;50.252;18.848;2023-03-04T09:51:20;98518.31;;;0.60;72.34
62436;BME280;48480;50.252;18.848;2023-03-04T09:54:07;98519.02;;;0.62;72.37
62436;BME280;48480;50.252;18.848;2023-03-04T09:56:36;98520.03;;;0.62;72.39
62436;BME280;48480;50.252;18.848;2023-03-04T09:59:05;98527.19;;;0.65;72.50
62436;BME280;48480;50.252;18.848;2023-03-04T10:01:48;98527.12;;;0.69;72.51
62436;BME280;48480;50.252;18.848;2023-03-04T10:04:34;98515.10;;;0.71;72.31
62436;BME280;48480;50.252;18.848;2023-03-04T10:07:05;98488.63;;;0.52;72.36
62436;BME280;48480;50.252;18.848;2023-03-04T10:12:05;98512.58;;;0.78;72.42
62436;BME280;48480;50.252;18.848;2023-03-04T10:14:37;98508.44;;;0.80;72.42
62436;BME280;48480;50.252;18.848;2023-03-04T10:19:53;98503.19;;;0.78;72.85
62436;BME280;48480;50.252;18.848;2023-03-04T10:22:43;98505.84;;;0.80;72.51
62436;BME280;48480;50.252;18.848;2023-03-04T10:25:30;98499.16;;;0.72;72.81
62436;BME280;48480;50.252;18.848;2023-03-04T10:28:16;98492.16;;;0.74;73.00
62436;BME280;48480;50.252;18.848;2023-03-04T10:33:19;98486.92;;;0.91;73.04
62436;BME280;48480;50.252;18.848;2023-03-04T10:38:20;98479.06;;;1.07;72.77
62436;BME280;48480;50.252;18.848;2023-03-04T10:40:47;98476.66;;;1.10;72.75
62436;BME280;48480;50.252;18.848;2023-03-04T10:43:18;98476.61;;;1.14;72.80
62436;BME280;48480;50.252;18.848;2023-03-04T10:45:47;98469.17;;;1.17;72.52
62436;BME280;48480;50.252;18.848;2023-03-04T10:48:25;98468.00;;;1.16;72.74
62436;BME280;48480;50.252;18.848;2023-03-04T10:50:51;98465.42;;;1.18;72.39
62436;BME280;48480;50.252;18.848;2023-03-04T10:53:30;98464.41;;;1.16;72.65
62436;BME280;48480;50.252;18.848;2023-03-04T10:56:37;98463.02;;;1.21;72.83
62436;BME280;48480;50.252;18.848;2023-03-04T11:01:45;98452.29;;;1.21;72.84
62436;BME280;48480;50.252;18.848;2023-03-04T11:04:17;98452.63;;;1.17;73.25
62436;BME280;48480;50.252;18.848;2023-03-04T11:06:43;98448.39;;;1.14;73.47
62436;BME280;48480;50.252;18.848;2023-03-04T11:09:28;98450.16;;;1.12;73.53
62436;BME280;48480;50.252;18.848;2023-03-04T11:12:12;98449.61;;;1.09;73.47
62436;BME280;48480;50.252;18.848;2023-03-04T11:17:49;98446.05;;;1.00;74.09
62436;BME280;48480;50.252;18.848;2023-03-04T11:20:35;98445.45;;;0.98;74.50
62436;BME280;48480;50.252;18.848;2023-03-04T11:23:14;98432.87;;;0.94;74.73
62436;BME280;48480;50.252;18.848;2023-03-04T11:26:12;98443.77;;;1.07;74.64
62436;BME280;48480;50.252;18.848;2023-03-04T11:28:46;98440.66;;;1.07;74.47
62436;BME280;48480;50.252;18.848;2023-03-04T11:31:39;98438.13;;;1.06;74.65
62436;BME280;48480;50.252;18.848;2023-03-04T11:37:20;98433.41;;;1.14;74.61
62436;BME280;48480;50.252;18.848;2023-03-04T11:42:42;98430.70;;;1.26;74.52
62436;BME280;48480;50.252;18.848;2023-03-04T11:45:16;98419.92;;;1.28;74.30
62436;BME280;48480;50.252;18.848;2023-03-04T11:50:37;98424.00;;;1.35;74.32
62436;BME280;48480;50.252;18.848;2023-03-04T12:07:27;98405.71;;;1.48;73.48
62436;BME280;48480;50.252;18.848;2023-03-04T12:32:38;98388.86;;;1.89;72.09
62436;BME280;48480;50.252;18.848;2023-03-04T12:38:07;98344.84;;;1.68;72.14
62436;BME280;48480;50.252;18.848;2023-03-04T12:43:31;98374.15;;;2.15;71.59
62436;BME280;48480;50.252;18.848;2023-03-04T12:49:40;98371.63;;;2.23;70.96
62436;BME280;48480;50.252;18.848;2023-03-04T12:52:31;98362.83;;;2.20;70.84
62436;BME280;48480;50.252;18.848;2023-03-04T12:55:11;98364.59;;;2.28;70.79
62436;BME280;48480;50.252;18.848;2023-03-04T12:58:02;98360.56;;;2.33;70.45
62436;BME280;48480;50.252;18.848;2023-03-04T13:06:10;98355.55;;;2.43;70.40
62436;BME280;48480;50.252;18.848;2023-03-04T13:14:00;98344.33;;;2.54;70.13
62436;BME280;48480;50.252;18.848;2023-03-04T13:24:49;98345.70;;;2.65;70.16
62436;BME280;48480;50.252;18.848;2023-03-04T13:27:47;98341.84;;;2.70;70.04
62436;BME280;48480;50.252;18.848;2023-03-04T13:32:45;98339.02;;;2.80;70.02
62436;BME280;48480;50.252;18.848;2023-03-04T13:48:38;98332.01;;;2.92;69.76
62436;BME280;48480;50.252;18.848;2023-03-04T13:51:38;98328.24;;;2.96;69.72
62436;BME280;48480;50.252;18.848;2023-03-04T13:56:40;98324.07;;;3.09;69.78
62436;BME280;48480;50.252;18.848;2023-03-04T14:04:11;98326.88;;;3.28;69.03
62436;BME280;48480;50.252;18.848;2023-03-04T14:06:43;98323.45;;;3.37;69.06
62436;BME280;48480;50.252;18.848;2023-03-04T14:09:19;98326.05;;;3.49;68.86
62436;BME280;48480;50.252;18.848;2023-03-04T14:11:47;98324.10;;;3.61;68.61
62436;BME280;48480;50.252;18.848;2023-03-04T14:14:18;98323.42;;;3.68;68.11
62436;BME280;48480;50.252;18.848;2023-03-04T14:16:50;98321.77;;;3.71;67.94
62436;BME280;48480;50.252;18.848;2023-03-04T14:19:24;98321.80;;;3.75;67.84
62436;BME280;48480;50.252;18.848;2023-03-04T14:21:50;98312.45;;;3.78;67.66
62436;BME280;48480;50.252;18.848;2023-03-04T14:24:18;98319.48;;;3.81;67.25
62436;BME280;48480;50.252;18.848;2023-03-04T14:26:44;98319.58;;;3.82;67.13
62436;BME280;48480;50.252;18.848;2023-03-04T14:31:48;98307.19;;;3.79;66.72
62436;BME280;48480;50.252;18.848;2023-03-04T14:34:21;98311.83;;;3.83;66.71
62436;BME280;48480;50.252;18.848;2023-03-04T14:37:02;98311.01;;;3.86;66.83
62436;BME280;48480;50.252;18.848;2023-03-04T14:39:31;98307.95;;;3.92;66.58
62436;BME280;48480;50.252;18.848;2023-03-04T14:42:07;98311.71;;;3.94;65.94
62436;BME280;48480;50.252;18.848;2023-03-04T14:44:55;98317.67;;;3.92;65.29
62436;BME280;48480;50.252;18.848;2023-03-04T14:49:59;98324.05;;;3.80;64.94
62436;BME280;48480;50.252;18.848;2023-03-04T14:52:35;98316.33;;;3.76;65.07
62436;BME280;48480;50.252;18.848;2023-03-04T14:55:15;98315.02;;;3.74;64.96
62436;BME280;48480;50.252;18.848;2023-03-04T14:57:43;98315.50;;;3.72;64.95
62436;BME280;48480;50.252;18.848;2023-03-04T15:05:44;98309.93;;;3.61;64.39
62436;BME280;48480;50.252;18.848;2023-03-04T15:08:21;98313.52;;;3.58;64.56
62436;BME280;48480;50.252;18.848;2023-03-04T15:10:59;98309.95;;;3.57;64.63
62436;BME280;48480;50.252;18.848;2023-03-04T15:13:53;98303.80;;;3.54;64.52
62436;BME280;48480;50.252;18.848;2023-03-04T15:16:21;98303.84;;;3.50;64.37
62436;BME280;48480;50.252;18.848;2023-03-04T15:21:29;98301.42;;;3.43;64.48
62436;BME280;48480;50.252;18.848;2023-03-04T15:24:09;98299.20;;;3.39;64.58
62436;BME280;48480;50.252;18.848;2023-03-04T15:26:40;98295.17;;;3.39;64.65
62436;BME280;48480;50.252;18.848;2023-03-04T15:29:24;98291.85;;;3.37;64.47
62436;BME280;48480;50.252;18.848;2023-03-04T15:31:55;98290.86;;;3.32;64.58
62436;BME280;48480;50.252;18.848;2023-03-04T15:34:21;98294.64;;;3.30;64.68
62436;BME280;48480;50.252;18.848;2023-03-04T15:39:14;98289.61;;;3.24;64.63
62436;BME280;48480;50.252;18.848;2023-03-04T15:41:40;98284.20;;;3.22;64.72
62436;BME280;48480;50.252;18.848;2023-03-04T15:44:06;98281.11;;;3.18;64.74
62436;BME280;48480;50.252;18.848;2023-03-04T15:46:31;98285.52;;;3.15;64.92
62436;BME280;48480;50.252;18.848;2023-03-04T15:48:57;98284.99;;;3.13;64.93
62436;BME280;48480;50.252;18.848;2023-03-04T15:51:26;98283.73;;;3.10;64.94
62436;BME280;48480;50.252;18.848;2023-03-04T15:53:56;98279.77;;;3.08;65.08
62436;BME280;48480;50.252;18.848;2023-03-04T15:56:28;98282.73;;;3.05;64.94
62436;BME280;48480;50.252;18.848;2023-03-04T15:58:57;98280.57;;;3.02;65.05
62436;BME280;48480;50.252;18.848;2023-03-04T16:01:24;98283.39;;;3.02;65.19
62436;BME280;48480;50.252;18.848;2023-03-04T16:03:50;98283.39;;;3.05;65.25
62436;BME280;48480;50.252;18.848;2023-03-04T16:06:17;98282.84;;;3.06;65.25
62436;BME280;48480;50.252;18.848;2023-03-04T16:08:46;98281.52;;;3.07;65.33
62436;BME280;48480;50.252;18.848;2023-03-04T16:11:24;98279.11;;;3.11;65.26
62436;BME280;48480;50.252;18.848;2023-03-04T16:13:50;98283.08;;;3.14;65.19
62436;BME280;48480;50.252;18.848;2023-03-04T16:16:16;98284.19;;;3.17;65.17
62436;BME280;48480;50.252;18.848;2023-03-04T16:18:42;98284.82;;;3.18;65.23
62436;BME280;48480;50.252;18.848;2023-03-04T16:21:13;98260.55;;;3.00;65.11
62436;BME280;48480;50.252;18.848;2023-03-04T16:23:41;98287.77;;;3.19;65.04
62436;BME280;48480;50.252;18.848;2023-03-04T16:26:15;98287.51;;;3.21;65.09
62436;BME280;48480;50.252;18.848;2023-03-04T16:28:41;98289.84;;;3.21;65.13
62436;BME280;48480;50.252;18.848;2023-03-04T16:31:09;98294.62;;;3.21;65.16
62436;BME280;48480;50.252;18.848;2023-03-04T16:33:35;98293.13;;;3.21;65.28
62436;BME280;48480;50.252;18.848;2023-03-04T16:36:00;98290.05;;;3.22;65.35
62436;BME280;48480;50.252;18.848;2023-03-04T16:38:30;98290.68;;;3.22;65.63
62436;BME280;48480;50.252;18.848;2023-03-04T16:40:57;98293.23;;;3.21;65.66
62436;BME280;48480;50.252;18.848;2023-03-04T16:43:23;98291.59;;;3.21;65.63
62436;BME280;48480;50.252;18.848;2023-03-04T16:45:49;98291.42;;;3.21;65.68
62436;BME280;48480;50.252;18.848;2023-03-04T16:48:15;98295.84;;;3.21;65.63
62436;BME280;48480;50.252;18.848;2023-03-04T16:50:41;98294.92;;;3.23;65.56
62436;BME280;48480;50.252;18.848;2023-03-04T16:53:23;98296.73;;;3.22;65.58
62436;BME280;48480;50.252;18.848;2023-03-04T16:55:50;98293.86;;;3.23;65.51
62436;BME280;48480;50.252;18.848;2023-03-04T16:58:16;98289.62;;;3.26;65.43
62436;BME280;48480;50.252;18.848;2023-03-04T17:00:41;98289.39;;;3.24;65.25
62436;BME280;48480;50.252;18.848;2023-03-04T17:03:09;98290.16;;;3.21;65.28
62436;BME280;48480;50.252;18.848;2023-03-04T17:05:36;98292.44;;;3.20;65.33
62436;BME280;48480;50.252;18.848;2023-03-04T17:08:01;98291.96;;;3.20;65.41
62436;BME280;48480;50.252;18.848;2023-03-04T17:10:27;98294.55;;;3.23;65.43
62436;BME280;48480;50.252;18.848;2023-03-04T17:12:52;98295.66;;;3.24;65.34
62436;BME280;48480;50.252;18.848;2023-03-04T17:15:18;98294.08;;;3.26;65.33
62436;BME280;48480;50.252;18.848;2023-03-04T17:17:44;98290.77;;;3.27;65.29
62436;BME280;48480;50.252;18.848;2023-03-04T17:20:13;98295.85;;;3.29;65.23
62436;BME280;48480;50.252;18.848;2023-03-04T17:22:39;98294.27;;;3.28;65.31
62436;BME280;48480;50.252;18.848;2023-03-04T17:25:05;98296.14;;;3.29;65.26
62436;BME280;48480;50.252;18.848;2023-03-04T17:27:31;98296.77;;;3.27;65.25
62436;BME280;48480;50.252;18.848;2023-03-04T17:29:56;98294.01;;;3.27;65.25
62436;BME280;48480;50.252;18.848;2023-03-04T17:32:22;98294.80;;;3.27;65.32
62436;BME280;48480;50.252;18.848;2023-03-04T17:34:47;98293.02;;;3.24;65.32
62436;BME280;48480;50.252;18.848;2023-03-04T17:37:14;98294.65;;;3.23;65.52
62436;BME280;48480;50.252;18.848;2023-03-04T17:39:40;98296.77;;;3.23;65.42
62436;BME280;48480;50.252;18.848;2023-03-04T17:42:06;98302.14;;;3.24;65.60
62436;BME280;48480;50.252;18.848;2023-03-04T17:44:32;98303.55;;;3.26;65.77
62436;BME280;48480;50.252;18.848;2023-03-04T17:46:57;98299.36;;;3.27;65.70
62436;BME280;48480;50.252;18.848;2023-03-04T17:49:24;98300.96;;;3.25;65.83
62436;BME280;48480;50.252;18.848;2023-03-04T17:51:49;98304.63;;;3.25;66.00
62436;BME280;48480;50.252;18.848;2023-03-04T17:54:15;98306.42;;;3.26;66.04
62436;BME280;48480;50.252;18.848;2023-03-04T17:56:41;98306.10;;;3.27;66.15
62436;BME280;48480;50.252;18.848;2023-03-04T17:59:12;98306.38;;;3.25;66.25
62436;BME280;48480;50.252;18.848;2023-03-04T18:01:38;98306.52;;;3.25;66.34
62436;BME280;48480;50.252;18.848;2023-03-04T18:04:04;98304.41;;;3.24;66.47
62436;BME280;48480;50.252;18.848;2023-03-04T18:06:29;98303.89;;;3.19;66.59
62436;BME280;48480;50.252;18.848;2023-03-04T18:08:55;98309.10;;;3.18;66.89
62436;BME280;48480;50.252;18.848;2023-03-04T18:11:22;98305.91;;;3.21;66.99
62436;BME280;48480;50.252;18.848;2023-03-04T18:13:49;98309.94;;;3.24;66.93
62436;BME280;48480;50.252;18.848;2023-03-04T18:16:15;98312.15;;;3.25;66.96
62436;BME280;48480;50.252;18.848;2023-03-04T18:18:48;98315.06;;;3.27;66.97
62436;BME280;48480;50.252;18.848;2023-03-04T18:21:15;98313.20;;;3.25;66.93
62436;BME280;48480;50.252;18.848;2023-03-04T18:23:40;98313.46;;;3.25;67.01
62436;BME280;48480;50.252;18.848;2023-03-04T18:26:06;98317.34;;;3.26;67.11
62436;BME280;48480;50.252;18.848;2023-03-04T18:28:32;98314.70;;;3.26;67.13
62436;BME280;48480;50.252;18.848;2023-03-04T18:30:58;98311.29;;;3.27;67.15
62436;BME280;48480;50.252;18.848;2023-03-04T18:33:25;98311.07;;;3.29;67.05
62436;BME280;48480;50.252;18.848;2023-03-04T18:35:57;98311.14;;;3.31;67.06
62436;BME280;48480;50.252;18.848;2023-03-04T18:38:22;98312.06;;;3.35;66.91
62436;BME280;48480;50.252;18.848;2023-03-04T18:40:47;98312.37;;;3.39;66.89
62436;BME280;48480;50.252;18.848;2023-03-04T18:43:13;98313.04;;;3.41;66.78
62436;BME280;48480;50.252;18.848;2023-03-04T18:45:39;98311.84;;;3.40;66.69
62436;BME280;48480;50.252;18.848;2023-03-04T18:48:05;98311.42;;;3.38;66.70
62436;BME280;48480;50.252;18.848;2023-03-04T18:50:31;98309.14;;;3.38;66.78
62436;BME280;48480;50.252;18.848;2023-03-04T18:53:01;98311.71;;;3.40;66.82
62436;BME280;48480;50.252;18.848;2023-03-04T18:55:27;98313.11;;;3.39;66.89
62436;BME280;48480;50.252;18.848;2023-03-04T18:57:55;98312.69;;;3.39;66.94
62436;BME280;48480;50.252;18.848;2023-03-04T19:00:23;98310.98;;;3.39;66.99
62436;BME280;48480;50.252;18.848;2023-03-04T19:02:54;98310.72;;;3.37;67.05
62436;BME280;48480;50.252;18.848;2023-03-04T19:05:25;98314.50;;;3.36;67.27
62436;BME280;48480;50.252;18.848;2023-03-04T19:07:52;98315.14;;;3.34;67.56
62436;BME280;48480;50.252;18.848;2023-03-04T19:10:19;98314.67;;;3.33;67.69
62436;BME280;48480;50.252;18.848;2023-03-04T19:12:46;98316.84;;;3.33;67.90
62436;BME280;48480;50.252;18.848;2023-03-04T19:15:12;98312.39;;;3.31;68.12
62436;BME280;48480;50.252;18.848;2023-03-04T19:17:39;98311.70;;;3.31;68.36
62436;BME280;48480;50.252;18.848;2023-03-04T19:20:06;98314.35;;;3.33;68.45
62436;BME280;48480;50.252;18.848;2023-03-04T19:22:33;98314.82;;;3.33;68.50
62436;BME280;48480;50.252;18.848;2023-03-04T19:24:59;98316.31;;;3.34;68.67
62436;BME280;48480;50.252;18.848;2023-03-04T19:27:24;98314.49;;;3.35;68.79
62436;BME280;48480;50.252;18.848;2023-03-04T19:29:50;98315.13;;;3.36;68.91
62436;BME280;48480;50.252;18.848;2023-03-04T19:32:15;98315.61;;;3.36;69.10
62436;BME280;48480;50.252;18.848;2023-03-04T19:34:45;98313.80;;;3.36;69.30
62436;BME280;48480;50.252;18.848;2023-03-04T19:37:11;98312.64;;;3.37;69.38
62436;BME280;48480;50.252;18.848;2023-03-04T19:39:36;98316.28;;;3.40;69.43
62436;BME280;48480;50.252;18.848;2023-03-04T19:42:02;98319.42;;;3.39;69.49
62436;BME280;48480;50.252;18.848;2023-03-04T19:44:28;98318.05;;;3.37;69.67
62436;BME280;48480;50.252;18.848;2023-03-04T19:46:53;98315.61;;;3.35;69.95
62436;BME280;48480;50.252;18.848;2023-03-04T19:49:19;98316.21;;;3.32;70.18
62436;BME280;48480;50.252;18.848;2023-03-04T19:51:44;98317.48;;;3.33;70.28
62436;BME280;48480;50.252;18.848;2023-03-04T19:54:10;98314.13;;;3.34;70.33
62436;BME280;48480;50.252;18.848;2023-03-04T19:56:35;98314.77;;;3.35;70.39
62436;BME280;48480;50.252;18.848;2023-03-04T19:59:01;98315.13;;;3.35;70.77
62436;BME280;48480;50.252;18.848;2023-03-04T20:01:30;98317.42;;;3.32;70.98
62436;BME280;48480;50.252;18.848;2023-03-04T20:03:58;98317.01;;;3.31;71.33
62436;BME280;48480;50.252;18.848;2023-03-04T20:06:24;98319.19;;;3.29;71.50
62436;BME280;48480;50.252;18.848;2023-03-04T20:08:56;98317.92;;;3.28;71.64
62436;BME280;48480;50.252;18.848;2023-03-04T20:11:22;98320.05;;;3.25;71.74
62436;BME280;48480;50.252;18.848;2023-03-04T20:13:48;98320.90;;;3.23;71.94
62436;BME280;48480;50.252;18.848;2023-03-04T20:16:14;98320.16;;;3.21;72.05
62436;BME280;48480;50.252;18.848;2023-03-04T20:18:40;98322.70;;;3.22;72.20
62436;BME280;48480;50.252;18.848;2023-03-04T20:21:06;98324.52;;;3.20;72.35
62436;BME280;48480;50.252;18.848;2023-03-04T20:23:32;98323.84;;;3.18;72.38
62436;BME280;48480;50.252;18.848;2023-03-04T20:25:59;98323.26;;;3.18;72.61
62436;BME280;48480;50.252;18.848;2023-03-04T20:28:26;98318.05;;;3.19;72.57
62436;BME280;48480;50.252;18.848;2023-03-04T20:30:53;98315.56;;;3.22;72.60
62436;BME280;48480;50.252;18.848;2023-03-04T20:33:33;98315.08;;;3.25;72.33
62436;BME280;48480;50.252;18.848;2023-03-04T20:35:59;98317.78;;;3.19;72.31
62436;BME280;48480;50.252;18.848;2023-03-04T20:38:24;98316.27;;;3.12;72.34
62436;BME280;48480;50.252;18.848;2023-03-04T20:40:50;98315.44;;;3.07;72.46
62436;BME280;48480;50.252;18.848;2023-03-04T20:43:16;98316.19;;;3.08;72.53
62436;BME280;48480;50.252;18.848;2023-03-04T20:45:41;98312.10;;;3.07;72.62
62436;BME280;48480;50.252;18.848;2023-03-04T20:48:07;98316.09;;;3.03;72.56
62436;BME280;48480;50.252;18.848;2023-03-04T20:50:33;98314.02;;;3.00;72.66
62436;BME280;48480;50.252;18.848;2023-03-04T20:52:59;98311.38;;;2.99;72.67
62436;BME280;48480;50.252;18.848;2023-03-04T20:55:24;98310.73;;;2.99;72.77
62436;BME280;48480;50.252;18.848;2023-03-04T20:57:52;98311.28;;;2.96;72.62
62436;BME280;48480;50.252;18.848;2023-03-04T21:00:18;98308.27;;;2.92;72.71
62436;BME280;48480;50.252;18.848;2023-03-04T21:02:44;98311.13;;;2.91;72.77
62436;BME280;48480;50.252;18.848;2023-03-04T21:05:11;98309.90;;;2.90;72.82
62436;BME280;48480;50.252;18.848;2023-03-04T21:07:36;98304.58;;;2.86;72.83
62436;BME280;48480;50.252;18.848;2023-03-04T21:10:03;98308.42;;;2.93;72.80
62436;BME280;48480;50.252;18.848;2023-03-04T21:12:29;98310.33;;;2.94;72.95
62436;BME280;48480;50.252;18.848;2023-03-04T21:14:55;98310.27;;;2.96;72.99
62436;BME280;48480;50.252;18.848;2023-03-04T21:17:20;98311.67;;;2.99;72.99
62436;BME280;48480;50.252;18.848;2023-03-04T21:19:45;98306.92;;;3.02;72.88
62436;BME280;48480;50.252;18.848;2023-03-04T21:22:16;98308.18;;;3.05;72.97
62436;BME280;48480;50.252;18.848;2023-03-04T21:24:43;98305.20;;;3.10;72.89
62436;BME280;48480;50.252;18.848;2023-03-04T21:27:09;98307.38;;;3.13;72.83
62436;BME280;48480;50.252;18.848;2023-03-04T21:29:35;98310.64;;;3.17;72.78
62436;BME280;48480;50.252;18.848;2023-03-04T21:32:03;98311.10;;;3.22;73.00
62436;BME280;48480;50.252;18.848;2023-03-04T21:34:48;98312.88;;;3.29;72.98
62436;BME280;48480;50.252;18.848;2023-03-04T21:37:17;98318.48;;;3.32;73.07
62436;BME280;48480;50.252;18.848;2023-03-04T21:39:42;98329.25;;;3.32;73.15
62436;BME280;48480;50.252;18.848;2023-03-04T21:42:08;98334.51;;;3.30;72.84
62436;BME280;48480;50.252;18.848;2023-03-04T21:44:33;98333.48;;;3.19;72.43
62436;BME280;48480;50.252;18.848;2023-03-04T21:46:59;98331.02;;;3.07;72.42
62436;BME280;48480;50.252;18.848;2023-03-04T21:49:25;98327.17;;;2.98;72.51
62436;BME280;48480;50.252;18.848;2023-03-04T21:51:51;98325.91;;;2.90;72.65
62436;BME280;48480;50.252;18.848;2023-03-04T21:54:17;98325.60;;;2.84;72.94
62436;BME280;48480;50.252;18.848;2023-03-04T21:56:42;98321.85;;;2.78;73.18
62436;BME280;48480;50.252;18.848;2023-03-04T21:59:11;98316.81;;;2.75;73.22
62436;BME280;48480;50.252;18.848;2023-03-04T22:01:37;98314.87;;;2.73;73.11
62436;BME280;48480;50.252;18.848;2023-03-04T22:04:02;98317.58;;;2.74;73.22
62436;BME280;48480;50.252;18.848;2023-03-04T22:06:30;98308.99;;;2.68;73.11
62436;BME280;48480;50.252;18.848;2023-03-04T22:08:58;98319.84;;;2.73;73.35
62436;BME280;48480;50.252;18.848;2023-03-04T22:11:25;98315.71;;;2.74;73.22
62436;BME280;48480;50.252;18.848;2023-03-04T22:13:56;98313.48;;;2.75;73.31
62436;BME280;48480;50.252;18.848;2023-03-04T22:16:22;98311.05;;;2.72;73.33
62436;BME280;48480;50.252;18.848;2023-03-04T22:18:48;98314.13;;;2.66;73.32
62436;BME280;48480;50.252;18.848;2023-03-04T22:21:16;98315.78;;;2.58;73.30
62436;BME280;48480;50.252;18.848;2023-03-04T22:23:46;98316.95;;;2.51;73.43
62436;BME280;48480;50.252;18.848;2023-03-04T22:26:15;98318.02;;;2.44;73.66
62436;BME280;48480;50.252;18.848;2023-03-04T22:28:42;98322.78;;;2.41;73.86
62436;BME280;48480;50.252;18.848;2023-03-04T22:31:20;98317.80;;;2.40;74.13
62436;BME280;48480;50.252;18.848;2023-03-04T22:33:50;98320.34;;;2.39;74.09
62436;BME280;48480;50.252;18.848;2023-03-04T22:36:17;98320.93;;;2.36;74.09
62436;BME280;48480;50.252;18.848;2023-03-04T22:38:43;98321.19;;;2.34;74.14